createdAt,value
2022-12-25T00:01:35.634Z,77.78
2022-12-25T00:06:38.584Z,78.55
2022-12-25T00:11:41.598Z,78.35
2022-12-25T00:16:44.680Z,78.81
2022-12-25T00:21:47.662Z,78.67
2022-12-25T00:26:50.608Z,78.71
2022-12-25T00:31:53.608Z,79.22
2022-12-25T00:36:56.655Z,78.40
2022-12-25T00:42:17.956Z,77.85
2022-12-25T00:47:21.106Z,77.80
2022-12-25T00:52:24.129Z,77.79
2022-12-25T00:57:27.040Z,78.01
2022-12-25T01:02:30.098Z,78.24
2022-12-25T01:07:33.340Z,78.89
2022-12-25T01:12:40.266Z,78.50
2022-12-25T01:17:43.619Z,78.66
2022-12-25T01:22:46.602Z,78.66
2022-12-25T01:27:49.545Z,78.27
2022-12-25T01:32:52.460Z,77.95
2022-12-25T01:37:55.587Z,78.02
2022-12-25T01:42:58.553Z,77.97
2022-12-25T01:48:06.751Z,77.76
2022-12-25T01:53:09.965Z,77.52
2022-12-25T01:58:13.316Z,77.26
2022-12-25T02:03:16.343Z,77.53
2022-12-25T02:08:22.146Z,77.44
2022-12-25T02:13:25.179Z,77.64
2022-12-25T02:18:43.922Z,77.79
2022-12-25T02:24:18.649Z,77.67
2022-12-25T02:29:30.504Z,77.46
2022-12-25T02:35:10.243Z,77.31
2022-12-25T02:40:22.732Z,77.33
2022-12-25T02:45:59.436Z,77.57
2022-12-25T02:51:25.107Z,77.39
2022-12-25T02:56:48.474Z,77.44
2022-12-25T03:02:10.482Z,77.56
2022-12-25T03:07:22.661Z,77.31
2022-12-25T03:12:55.705Z,77.12
2022-12-25T03:18:03.305Z,77.29
2022-12-25T03:23:27.351Z,77.61
2022-12-25T03:28:30.390Z,78.01
2022-12-25T03:34:15.707Z,77.70
2022-12-25T03:39:56.125Z,78.05
2022-12-25T03:45:34.372Z,78.54
2022-12-25T03:51:15.620Z,78.55
2022-12-25T03:56:39.041Z,78.48
2022-12-25T04:02:00.490Z,78.51
2022-12-25T04:07:21.908Z,78.60
2022-12-25T04:12:43.639Z,78.69
2022-12-25T04:18:05.384Z,78.76
2022-12-25T04:23:26.950Z,78.57
2022-12-25T04:28:48.658Z,78.46
2022-12-25T04:34:10.354Z,78.56
2022-12-25T04:39:13.397Z,78.82
2022-12-25T04:44:16.349Z,78.96
2022-12-25T04:49:19.276Z,78.77
2022-12-25T04:54:22.220Z,78.48
2022-12-25T04:59:25.262Z,78.29
2022-12-25T05:04:28.209Z,78.26
2022-12-25T05:09:31.116Z,78.40
2022-12-25T05:14:34.071Z,78.39
2022-12-25T05:19:37.026Z,77.93
2022-12-25T05:24:39.988Z,77.87
2022-12-25T05:29:42.957Z,77.94
2022-12-25T05:34:45.901Z,77.80
2022-12-25T05:39:48.851Z,77.82
2022-12-25T05:44:51.838Z,78.11
2022-12-25T05:49:54.782Z,78.25
2022-12-25T05:54:57.732Z,77.88
2022-12-25T06:00:00.714Z,77.65
2022-12-25T06:05:04.984Z,77.59
2022-12-25T06:10:08.998Z,77.52
2022-12-25T06:15:12.627Z,77.83
2022-12-25T06:20:15.589Z,78.15
2022-12-25T06:25:18.704Z,78.13
2022-12-25T06:30:21.678Z,78.00
2022-12-25T06:35:24.628Z,78.30
2022-12-25T06:40:27.574Z,78.28
2022-12-25T06:45:30.617Z,78.17
2022-12-25T06:50:33.585Z,78.34
2022-12-25T06:55:36.541Z,78.17
2022-12-25T07:00:39.472Z,78.18
2022-12-25T07:05:44.980Z,78.01
2022-12-25T07:10:47.897Z,77.89
2022-12-25T07:16:03.325Z,78.02
2022-12-25T07:21:12.983Z,78.07
2022-12-25T07:26:17.501Z,78.25
2022-12-25T07:31:20.505Z,78.30
2022-12-25T07:36:23.414Z,78.37
2022-12-25T07:41:26.419Z,78.67
2022-12-25T07:46:29.453Z,79.07
2022-12-25T07:51:32.523Z,78.90
2022-12-25T07:56:35.590Z,78.93
2022-12-25T08:01:38.662Z,78.87
2022-12-25T08:06:41.771Z,79.12
2022-12-25T08:11:49.455Z,79.46
2022-12-25T08:16:52.503Z,79.20
2022-12-25T08:21:55.901Z,79.16
2022-12-25T08:26:58.865Z,79.20
2022-12-25T08:32:01.923Z,79.30
2022-12-25T08:37:05.046Z,79.53
2022-12-25T08:42:08.002Z,79.44
2022-12-25T08:47:10.899Z,79.42
2022-12-25T08:52:13.872Z,79.29
2022-12-25T08:57:16.806Z,79.42
2022-12-25T09:02:19.934Z,79.64
2022-12-25T09:07:23.148Z,79.50
2022-12-25T09:12:26.105Z,79.22
2022-12-25T09:17:29.035Z,79.14
2022-12-25T09:22:32.000Z,79.27
2022-12-25T09:27:34.952Z,79.28
2022-12-25T09:32:40.418Z,79.20
2022-12-25T09:37:43.470Z,79.32
2022-12-25T09:42:48.706Z,79.59
2022-12-25T09:47:55.402Z,79.43
2022-12-25T09:53:29.403Z,79.19
2022-12-25T09:58:34.297Z,79.50
2022-12-25T10:04:12.865Z,79.41
2022-12-25T10:09:31.345Z,79.49
2022-12-25T10:15:11.851Z,79.56
2022-12-25T10:20:29.785Z,79.56
2022-12-25T10:25:32.956Z,79.29
2022-12-25T10:30:36.047Z,79.30
2022-12-25T10:35:40.082Z,79.58
2022-12-25T10:41:06.314Z,79.40
2022-12-25T10:46:12.579Z,79.16
2022-12-25T10:51:35.476Z,79.15
2022-12-25T10:56:38.483Z,79.33
2022-12-25T11:01:41.492Z,79.32
2022-12-25T11:06:44.612Z,78.97
2022-12-25T11:11:48.190Z,78.61
2022-12-25T11:16:51.159Z,78.61
2022-12-25T11:21:58.113Z,78.41
2022-12-25T11:27:06.536Z,78.24
2022-12-25T11:32:45.837Z,77.94
2022-12-25T11:37:52.464Z,77.84
2022-12-25T11:43:16.291Z,77.98
2022-12-25T11:48:47.341Z,77.90
2022-12-25T11:54:01.169Z,77.51
2022-12-25T11:59:18.288Z,77.42
2022-12-25T12:04:43.136Z,77.45
2022-12-25T12:09:58.474Z,77.62
2022-12-25T12:15:21.235Z,77.55
2022-12-25T12:20:34.689Z,77.35
2022-12-25T12:25:43.874Z,77.30
2022-12-25T12:31:07.345Z,77.25
2022-12-25T12:36:14.660Z,77.53
2022-12-25T12:41:18.263Z,77.67
2022-12-25T12:46:30.567Z,77.33
2022-12-25T12:51:37.095Z,77.22
2022-12-25T12:56:40.041Z,77.45
2022-12-25T13:01:58.596Z,77.62
2022-12-25T13:07:51.255Z,77.72
2022-12-25T13:13:03.034Z,77.51
2022-12-25T13:18:10.018Z,77.26
2022-12-25T13:23:37.914Z,77.11
2022-12-25T13:28:41.448Z,77.18
2022-12-25T13:34:23.377Z,77.51
2022-12-25T13:39:27.187Z,77.65
2022-12-25T13:44:42.040Z,77.58
2022-12-25T13:49:46.108Z,77.33
2022-12-25T13:55:11.833Z,77.21
2022-12-25T14:00:25.760Z,77.45
2022-12-25T14:05:39.761Z,77.70
2022-12-25T14:10:50.358Z,77.70
2022-12-25T14:15:54.627Z,77.63
2022-12-25T14:21:03.431Z,77.78
2022-12-25T14:26:06.704Z,77.56
2022-12-25T14:31:11.980Z,77.77
2022-12-25T14:36:15.161Z,77.78
2022-12-25T14:41:34.680Z,77.73
2022-12-25T14:46:37.730Z,77.16
2022-12-25T14:51:43.357Z,77.25
2022-12-25T14:56:52.970Z,77.25
2022-12-25T15:02:03.622Z,77.66
2022-12-25T15:07:09.615Z,77.74
2022-12-25T15:12:13.252Z,78.03
2022-12-25T15:17:29.816Z,78.43
2022-12-25T15:22:54.038Z,78.54
2022-12-25T15:27:56.978Z,77.54
2022-12-25T15:32:59.920Z,77.80
2022-12-25T15:38:02.846Z,78.00
2022-12-25T15:43:11.319Z,78.06
2022-12-25T15:48:23.864Z,78.32
2022-12-25T15:53:27.063Z,77.72
2022-12-25T15:58:30.050Z,77.60
2022-12-25T16:03:33.164Z,77.74
2022-12-25T16:08:36.192Z,77.64
2022-12-25T16:13:39.184Z,77.71
2022-12-25T16:18:47.412Z,77.69
2022-12-25T16:23:50.931Z,77.47
2022-12-25T16:28:53.876Z,77.01
2022-12-25T16:33:56.873Z,76.95
2022-12-25T16:38:59.862Z,76.83
2022-12-25T16:44:10.172Z,76.71
2022-12-25T16:49:13.207Z,76.62
2022-12-25T16:54:16.187Z,76.39
2022-12-25T16:59:19.186Z,76.81
2022-12-25T17:04:22.149Z,76.15
2022-12-25T17:09:25.202Z,75.69
2022-12-25T17:14:28.142Z,75.13
2022-12-25T17:19:31.293Z,75.78
2022-12-25T17:24:36.356Z,76.87
2022-12-25T17:29:40.053Z,77.28
2022-12-25T17:34:42.976Z,77.47
2022-12-25T17:39:47.167Z,77.32
2022-12-25T17:44:50.219Z,76.97
2022-12-25T17:49:53.207Z,77.17
2022-12-25T17:54:56.117Z,77.65
2022-12-25T17:59:59.443Z,77.80
2022-12-25T18:05:02.367Z,78.24
2022-12-25T18:10:06.056Z,78.69
2022-12-25T18:15:10.027Z,79.62
2022-12-25T18:20:13.131Z,79.57
2022-12-25T18:25:16.153Z,79.50
2022-12-25T18:30:20.135Z,79.34
2022-12-25T18:35:29.051Z,78.88
2022-12-25T18:40:32.476Z,78.41
2022-12-25T18:45:35.853Z,78.57
2022-12-25T18:50:40.929Z,78.39
2022-12-25T18:55:44.110Z,77.77
2022-12-25T19:00:47.128Z,76.98
2022-12-25T19:05:52.918Z,77.46
2022-12-25T19:10:55.886Z,77.59
2022-12-25T19:15:59.623Z,77.92
2022-12-25T19:21:04.027Z,78.63
2022-12-25T19:26:08.827Z,78.83
2022-12-25T19:31:12.743Z,79.07
2022-12-25T19:36:16.766Z,78.83
2022-12-25T19:41:19.973Z,78.67
2022-12-25T19:46:27.527Z,78.54
2022-12-25T19:51:52.133Z,78.69
2022-12-25T19:56:55.926Z,78.47
2022-12-25T20:01:58.951Z,78.54
2022-12-25T20:07:02.056Z,78.46
2022-12-25T20:12:05.852Z,78.29
2022-12-25T20:17:15.314Z,78.43
2022-12-25T20:22:18.786Z,78.32
2022-12-25T20:27:21.827Z,78.38
2022-12-25T20:32:25.076Z,78.84
2022-12-25T20:37:28.149Z,79.76
2022-12-25T20:42:31.062Z,79.92
2022-12-25T20:47:34.512Z,79.77
2022-12-25T20:52:37.463Z,80.20
2022-12-25T20:57:40.595Z,79.78
2022-12-25T21:02:43.993Z,79.67
2022-12-25T21:07:47.172Z,79.91
2022-12-25T21:12:50.140Z,79.92
2022-12-25T21:17:53.133Z,80.40
2022-12-25T21:22:56.112Z,80.59
2022-12-25T21:27:59.096Z,80.65
2022-12-25T21:33:20.630Z,80.86
2022-12-25T21:38:23.557Z,80.62
2022-12-25T21:43:26.529Z,80.64
2022-12-25T21:48:29.487Z,80.62
2022-12-25T21:53:32.422Z,80.54
2022-12-25T21:58:35.388Z,80.53
2022-12-25T22:03:38.501Z,80.50
2022-12-25T22:08:41.667Z,80.60
2022-12-25T22:14:03.373Z,80.70
2022-12-25T22:19:25.125Z,80.91
2022-12-25T22:24:28.129Z,81.03
2022-12-25T22:29:31.067Z,81.45
2022-12-25T22:34:34.136Z,81.65
2022-12-25T22:39:37.348Z,81.94
2022-12-25T22:44:40.683Z,81.98
2022-12-25T22:49:43.666Z,81.94
2022-12-25T22:54:46.679Z,82.03
2022-12-25T22:59:53.091Z,81.90
2022-12-25T23:04:56.143Z,81.65
2022-12-25T23:09:59.185Z,81.05
2022-12-25T23:15:02.204Z,80.93
2022-12-25T23:20:25.134Z,80.72
2022-12-25T23:25:46.929Z,80.92
2022-12-25T23:30:49.975Z,80.81
2022-12-25T23:35:52.946Z,80.97
2022-12-25T23:40:55.891Z,80.69
2022-12-25T23:45:58.908Z,80.34
2022-12-25T23:51:07.017Z,80.23
2022-12-25T23:56:10.648Z,80.67
